sensor_id;sensor_type;location;lat;lon;timestamp;pressure;altitude;pressure_sealevel;temperature;humidity
10176;BME280;18221;38.704;0.152;2023-08-30T00:13:11;98409.41;;;30.37;40.69
10176;BME280;18221;38.704;0.152;2023-08-30T00:15:39;98410.22;;;30.28;40.94
10176;BME280;18221;38.704;0.152;2023-08-30T00:18:07;98405.56;;;30.28;40.87
10176;BME280;18221;38.704;0.152;2023-08-30T00:20:36;98402.53;;;30.30;41.06
10176;BME280;18221;38.704;0.152;2023-08-30T00:23:04;98400.88;;;30.34;41.18
10176;BME280;18221;38.704;0.152;2023-08-30T00:25:32;98394.88;;;30.37;41.28
10176;BME280;18221;38.704;0.152;2023-08-30T00:28:00;98395.44;;;30.29;41.28
10176;BME280;18221;38.704;0.152;2023-08-30T00:30:29;98390.75;;;30.34;41.58
10176;BME280;18221;38.704;0.152;2023-08-30T00:32:58;98386.63;;;30.42;41.62
10176;BME280;18221;38.704;0.152;2023-08-30T00:35:25;98382.53;;;30.34;41.51
10176;BME280;18221;38.704;0.152;2023-08-30T00:37:53;98383.63;;;30.38;41.29
10176;BME280;18221;38.704;0.152;2023-08-30T00:40:24;98382.53;;;30.39;41.50
10176;BME280;18221;38.704;0.152;2023-08-30T00:42:52;98387.44;;;30.42;41.26
10176;BME280;18221;38.704;0.152;2023-08-30T00:45:20;98393.69;;;30.48;41.49
10176;BME280;18221;38.704;0.152;2023-08-30T00:47:50;98381.34;;;30.50;41.03
10176;BME280;18221;38.704;0.152;2023-08-30T00:50:19;98379.16;;;30.52;41.30
10176;BME280;18221;38.704;0.152;2023-08-30T00:52:48;98375.34;;;30.48;41.21
10176;BME280;18221;38.704;0.152;2023-08-30T00:55:16;98379.19;;;30.47;41.27
10176;BME280;18221;38.704;0.152;2023-08-30T00:57:44;98368.28;;;30.42;41.23
10176;BME280;18221;38.704;0.152;2023-08-30T01:00:12;98367.16;;;30.43;41.03
10176;BME280;18221;38.704;0.152;2023-08-30T01:02:40;98366.09;;;30.39;41.28
10176;BME280;18221;38.704;0.152;2023-08-30T01:05:10;98359.78;;;30.34;41.36
10176;BME280;18221;38.704;0.152;2023-08-30T01:07:38;98359.00;;;30.28;41.32
10176;BME280;18221;38.704;0.152;2023-08-30T01:10:07;98363.91;;;30.31;41.64
10176;BME280;18221;38.704;0.152;2023-08-30T01:12:43;98360.63;;;30.34;41.46
10176;BME280;18221;38.704;0.152;2023-08-30T01:15:19;98360.09;;;30.37;41.46
10176;BME280;18221;38.704;0.152;2023-08-30T01:17:48;98354.59;;;30.37;41.80
10176;BME280;18221;38.704;0.152;2023-08-30T01:20:23;98354.59;;;30.37;41.74
10176;BME280;18221;38.704;0.152;2023-08-30T01:23:03;98351.56;;;30.34;41.79
10176;BME280;18221;38.704;0.152;2023-08-30T01:25:47;98349.41;;;30.31;41.96
10176;BME280;18221;38.704;0.152;2023-08-30T01:28:23;98344.75;;;30.31;41.88
10176;BME280;18221;38.704;0.152;2023-08-30T01:30:53;98352.69;;;30.28;42.03
10176;BME280;18221;38.704;0.152;2023-08-30T01:33:24;98354.59;;;30.27;42.02
10176;BME280;18221;38.704;0.152;2023-08-30T01:35:55;98353.00;;;30.26;41.75
10176;BME280;18221;38.704;0.152;2023-08-30T01:38:26;98361.19;;;30.26;41.99
10176;BME280;18221;38.704;0.152;2023-08-30T01:40:57;98362.06;;;30.22;41.78
10176;BME280;18221;38.704;0.152;2023-08-30T01:43:28;98359.59;;;30.20;41.79
10176;BME280;18221;38.704;0.152;2023-08-30T01:45:58;98367.28;;;30.18;41.83
10176;BME280;18221;38.704;0.152;2023-08-30T01:48:29;98371.66;;;30.14;41.78
10176;BME280;18221;38.704;0.152;2023-08-30T01:50:57;98357.44;;;30.12;42.21
10176;BME280;18221;38.704;0.152;2023-08-30T01:53:28;98344.59;;;30.08;42.02
10176;BME280;18221;38.704;0.152;2023-08-30T01:55:56;98344.84;;;30.06;42.22
10176;BME280;18221;38.704;0.152;2023-08-30T01:58:26;98343.50;;;30.04;42.43
10176;BME280;18221;38.704;0.152;2023-08-30T02:00:54;98338.03;;;30.04;42.26
10176;BME280;18221;38.704;0.152;2023-08-30T02:03:23;98339.41;;;30.01;42.01
10176;BME280;18221;38.704;0.152;2023-08-30T02:06:03;98334.53;;;29.98;42.00
10176;BME280;18221;38.704;0.152;2023-08-30T02:08:40;98343.56;;;29.93;42.16
10176;BME280;18221;38.704;0.152;2023-08-30T02:11:15;98346.31;;;29.88;42.31
10176;BME280;18221;38.704;0.152;2023-08-30T02:13:47;98341.97;;;29.87;41.89
10176;BME280;18221;38.704;0.152;2023-08-30T02:16:18;98349.06;;;29.83;41.91
10176;BME280;18221;38.704;0.152;2023-08-30T02:18:47;98339.28;;;29.57;42.87
10176;BME280;18221;38.704;0.152;2023-08-30T02:21:16;98344.19;;;29.65;42.34
10176;BME280;18221;38.704;0.152;2023-08-30T02:23:49;98335.41;;;29.68;42.40
10176;BME280;18221;38.704;0.152;2023-08-30T02:26:19;98342.81;;;29.68;42.55
10176;BME280;18221;38.704;0.152;2023-08-30T02:28:49;98347.19;;;29.69;42.53
10176;BME280;18221;38.704;0.152;2023-08-30T02:31:17;98340.06;;;29.68;42.60
10176;BME280;18221;38.704;0.152;2023-08-30T02:33:46;98341.72;;;29.69;42.63
10176;BME280;18221;38.704;0.152;2023-08-30T02:36:13;98338.44;;;29.67;42.66
10176;BME280;18221;38.704;0.152;2023-08-30T02:38:41;98331.31;;;29.66;42.33
10176;BME280;18221;38.704;0.152;2023-08-30T02:41:09;98329.66;;;29.65;42.50
10176;BME280;18221;38.704;0.152;2023-08-30T02:43:38;98327.78;;;29.60;42.31
10176;BME280;18221;38.704;0.152;2023-08-30T02:46:08;98331.34;;;29.61;42.38
10176;BME280;18221;38.704;0.152;2023-08-30T02:48:35;98319.88;;;29.59;42.39
10176;BME280;18221;38.704;0.152;2023-08-30T02:51:04;98321.22;;;29.61;42.36
10176;BME280;18221;38.704;0.152;2023-08-30T02:53:31;98326.94;;;29.60;42.49
10176;BME280;18221;38.704;0.152;2023-08-30T02:55:59;98323.41;;;29.54;42.93
10176;BME280;18221;38.704;0.152;2023-08-30T02:58:27;98321.78;;;29.53;42.78
10176;BME280;18221;38.704;0.152;2023-08-30T03:00:56;98313.28;;;29.55;42.68
10176;BME280;18221;38.704;0.152;2023-08-30T03:03:25;98314.97;;;29.51;42.61
10176;BME280;18221;38.704;0.152;2023-08-30T03:05:54;98315.50;;;29.48;43.03
10176;BME280;18221;38.704;0.152;2023-08-30T03:08:21;98313.88;;;29.47;42.61
10176;BME280;18221;38.704;0.152;2023-08-30T03:10:49;98310.59;;;29.40;43.06
10176;BME280;18221;38.704;0.152;2023-08-30T03:13:18;98311.69;;;29.38;43.03
10176;BME280;18221;38.704;0.152;2023-08-30T03:15:46;98306.25;;;29.33;42.92
10176;BME280;18221;38.704;0.152;2023-08-30T03:18:13;98315.28;;;29.19;42.74
10176;BME280;18221;38.704;0.152;2023-08-30T03:20:43;98315.00;;;29.15;43.07
10176;BME280;18221;38.704;0.152;2023-08-30T03:23:11;98313.13;;;29.01;42.99
10176;BME280;18221;38.704;0.152;2023-08-30T03:25:39;98310.66;;;28.84;43.61
10176;BME280;18221;38.704;0.152;2023-08-30T03:28:06;98298.13;;;28.78;43.14
10176;BME280;18221;38.704;0.152;2023-08-30T03:30:35;98306.03;;;28.69;43.16
10176;BME280;18221;38.704;0.152;2023-08-30T03:33:03;98311.16;;;28.51;42.90
10176;BME280;18221;38.704;0.152;2023-08-30T03:35:34;98302.69;;;28.42;42.88
10176;BME280;18221;38.704;0.152;2023-08-30T03:38:04;98304.63;;;28.47;42.68
10176;BME280;18221;38.704;0.152;2023-08-30T03:40:33;98302.44;;;28.39;42.95
10176;BME280;18221;38.704;0.152;2023-08-30T03:43:01;98307.59;;;28.35;42.69
10176;BME280;18221;38.704;0.152;2023-08-30T03:45:29;98312.75;;;28.11;43.25
10176;BME280;18221;38.704;0.152;2023-08-30T03:48:01;98308.63;;;28.09;42.95
10176;BME280;18221;38.704;0.152;2023-08-30T03:50:29;98311.63;;;28.02;42.53
10176;BME280;18221;38.704;0.152;2023-08-30T03:52:57;98317.06;;;27.97;42.65
10176;BME280;18221;38.704;0.152;2023-08-30T03:55:27;98316.22;;;27.92;42.63
10176;BME280;18221;38.704;0.152;2023-08-30T03:57:55;98311.66;;;28.07;42.36
10176;BME280;18221;38.704;0.152;2023-08-30T04:00:23;98326.31;;;27.96;42.58
10176;BME280;18221;38.704;0.152;2023-08-30T04:02:51;98320.91;;;28.01;42.37
10176;BME280;18221;38.704;0.152;2023-08-30T04:05:22;98324.66;;;27.95;42.17
10176;BME280;18221;38.704;0.152;2023-08-30T04:07:50;98328.50;;;27.94;42.58
10176;BME280;18221;38.704;0.152;2023-08-30T04:10:18;98324.88;;;27.79;42.33
10176;BME280;18221;38.704;0.152;2023-08-30T04:12:48;98317.53;;;27.84;42.80
10176;BME280;18221;38.704;0.152;2023-08-30T04:15:16;98324.66;;;27.95;42.58
10176;BME280;18221;38.704;0.152;2023-08-30T04:17:44;98324.94;;;27.94;42.57
10176;BME280;18221;38.704;0.152;2023-08-30T04:20:12;98318.31;;;27.80;42.41
10176;BME280;18221;38.704;0.152;2023-08-30T04:22:40;98323.69;;;27.60;43.06
10176;BME280;18221;38.704;0.152;2023-08-30T04:25:09;98325.63;;;27.64;43.01
10176;BME280;18221;38.704;0.152;2023-08-30T04:27:37;98325.47;;;27.91;42.54
10176;BME280;18221;38.704;0.152;2023-08-30T04:30:09;98333.13;;;27.94;42.41
10176;BME280;18221;38.704;0.152;2023-08-30T04:32:37;98329.50;;;27.73;43.09
10176;BME280;18221;38.704;0.152;2023-08-30T04:35:07;98328.69;;;27.78;42.86
10176;BME280;18221;38.704;0.152;2023-08-30T04:37:35;98321.88;;;27.80;42.80
10176;BME280;18221;38.704;0.152;2023-08-30T04:40:06;98323.97;;;27.53;43.10
10176;BME280;18221;38.704;0.152;2023-08-30T04:42:36;98330.81;;;27.61;43.01
10176;BME280;18221;38.704;0.152;2023-08-30T04:45:08;98325.75;;;27.84;42.56
10176;BME280;18221;38.704;0.152;2023-08-30T04:47:37;98325.16;;;27.82;42.41
10176;BME280;18221;38.704;0.152;2023-08-30T04:50:06;98323.50;;;27.76;42.21
10176;BME280;18221;38.704;0.152;2023-08-30T04:52:34;98321.03;;;27.75;42.46
10176;BME280;18221;38.704;0.152;2023-08-30T04:55:03;98327.88;;;27.77;42.48
10176;BME280;18221;38.704;0.152;2023-08-30T04:57:31;98318.06;;;27.76;42.16
10176;BME280;18221;38.704;0.152;2023-08-30T05:00:02;98326.25;;;27.76;42.64
10176;BME280;18221;38.704;0.152;2023-08-30T05:05:01;98332.94;;;27.53;42.84
10176;BME280;18221;38.704;0.152;2023-08-30T05:07:29;98333.00;;;27.64;42.48
10176;BME280;18221;38.704;0.152;2023-08-30T05:09:58;98336.00;;;27.62;42.46
10176;BME280;18221;38.704;0.152;2023-08-30T05:12:26;98329.47;;;27.63;42.69
10176;BME280;18221;38.704;0.152;2023-08-30T05:14:55;98335.81;;;27.37;43.09
10176;BME280;18221;38.704;0.152;2023-08-30T05:17:23;98343.16;;;27.31;43.30
10176;BME280;18221;38.704;0.152;2023-08-30T05:19:53;98330.31;;;27.27;43.32
10176;BME280;18221;38.704;0.152;2023-08-30T05:22:20;98336.19;;;27.09;43.48
10176;BME280;18221;38.704;0.152;2023-08-30T05:24:48;98340.63;;;27.25;43.32
10176;BME280;18221;38.704;0.152;2023-08-30T05:27:16;98340.72;;;27.35;42.73
10176;BME280;18221;38.704;0.152;2023-08-30T05:29:45;98343.28;;;27.51;42.38
10176;BME280;18221;38.704;0.152;2023-08-30T05:32:13;98357.63;;;27.37;42.68
10176;BME280;18221;38.704;0.152;2023-08-30T05:34:41;98356.91;;;27.46;42.38
10176;BME280;18221;38.704;0.152;2023-08-30T05:37:11;98361.50;;;27.41;42.01
10176;BME280;18221;38.704;0.152;2023-08-30T05:39:39;98359.06;;;27.44;41.44
10176;BME280;18221;38.704;0.152;2023-08-30T05:42:07;98361.38;;;27.26;41.41
10176;BME280;18221;38.704;0.152;2023-08-30T05:44:34;98357.19;;;27.45;41.04
10176;BME280;18221;38.704;0.152;2023-08-30T05:47:03;98356.34;;;27.44;40.72
10176;BME280;18221;38.704;0.152;2023-08-30T05:49:31;98356.88;;;27.41;40.91
10176;BME280;18221;38.704;0.152;2023-08-30T05:51:59;98366.81;;;27.26;40.81
10176;BME280;18221;38.704;0.152;2023-08-30T05:54:28;98357.47;;;27.17;40.87
10176;BME280;18221;38.704;0.152;2023-08-30T05:56:58;98358.00;;;27.09;40.66
10176;BME280;18221;38.704;0.152;2023-08-30T05:59:26;98360.78;;;27.19;40.32
10176;BME280;18221;38.704;0.152;2023-08-30T06:01:54;98368.13;;;27.18;39.89
10176;BME280;18221;38.704;0.152;2023-08-30T06:04:22;98376.91;;;27.25;39.68
10176;BME280;18221;38.704;0.152;2023-08-30T06:06:50;98373.31;;;27.20;39.56
10176;BME280;18221;38.704;0.152;2023-08-30T06:09:17;98368.09;;;27.13;39.36
10176;BME280;18221;38.704;0.152;2023-08-30T06:11:47;98377.66;;;27.16;38.91
10176;BME280;18221;38.704;0.152;2023-08-30T06:14:16;98375.84;;;27.26;38.54
10176;BME280;18221;38.704;0.152;2023-08-30T06:16:44;98388.94;;;27.29;38.20
10176;BME280;18221;38.704;0.152;2023-08-30T06:19:12;98380.47;;;27.26;37.87
10176;BME280;18221;38.704;0.152;2023-08-30T06:21:40;98383.31;;;27.09;37.80
10176;BME280;18221;38.704;0.152;2023-08-30T06:24:08;98379.78;;;27.09;37.71
10176;BME280;18221;38.704;0.152;2023-08-30T06:26:36;98392.34;;;27.15;37.56
10176;BME280;18221;38.704;0.152;2023-08-30T06:29:06;98389.63;;;27.15;37.32
10176;BME280;18221;38.704;0.152;2023-08-30T06:31:34;98395.78;;;27.00;37.45
10176;BME280;18221;38.704;0.152;2023-08-30T06:34:03;98397.53;;;27.11;37.01
10176;BME280;18221;38.704;0.152;2023-08-30T06:36:31;98398.31;;;27.12;36.96
10176;BME280;18221;38.704;0.152;2023-08-30T06:38:59;98393.19;;;27.15;36.78
10176;BME280;18221;38.704;0.152;2023-08-30T06:41:27;98402.19;;;27.16;36.81
10176;BME280;18221;38.704;0.152;2023-08-30T06:43:55;98410.28;;;27.06;37.06
10176;BME280;18221;38.704;0.152;2023-08-30T06:46:24;98401.63;;;27.14;36.46
10176;BME280;18221;38.704;0.152;2023-08-30T06:48:52;98404.47;;;27.29;36.36
10176;BME280;18221;38.704;0.152;2023-08-30T06:51:20;98413.34;;;27.14;36.39
10176;BME280;18221;38.704;0.152;2023-08-30T06:53:48;98407.69;;;27.21;36.00
10176;BME280;18221;38.704;0.152;2023-08-30T06:56:16;98410.84;;;27.39;35.87
10176;BME280;18221;38.704;0.152;2023-08-30T06:58:44;98413.78;;;27.38;35.67
10176;BME280;18221;38.704;0.152;2023-08-30T07:01:12;98412.78;;;27.44;35.63
10176;BME280;18221;38.704;0.152;2023-08-30T07:03:41;98419.78;;;27.35;35.49
10176;BME280;18221;38.704;0.152;2023-08-30T07:06:10;98414.91;;;27.37;35.72
10176;BME280;18221;38.704;0.152;2023-08-30T07:08:38;98421.28;;;27.47;35.19
10176;BME280;18221;38.704;0.152;2023-08-30T07:11:06;98428.16;;;27.55;35.06
10176;BME280;18221;38.704;0.152;2023-08-30T07:13:34;98429.66;;;27.41;35.18
10176;BME280;18221;38.704;0.152;2023-08-30T07:16:02;98425.34;;;27.45;34.86
10176;BME280;18221;38.704;0.152;2023-08-30T07:18:30;98427.22;;;27.39;34.96
10176;BME280;18221;38.704;0.152;2023-08-30T07:20:59;98426.75;;;27.52;34.65
10176;BME280;18221;38.704;0.152;2023-08-30T07:23:27;98420.03;;;27.65;34.46
10176;BME280;18221;38.704;0.152;2023-08-30T07:25:55;98418.88;;;27.61;34.42
10176;BME280;18221;38.704;0.152;2023-08-30T07:28:22;98425.50;;;27.70;34.19
10176;BME280;18221;38.704;0.152;2023-08-30T07:30:50;98423.56;;;27.66;34.42
10176;BME280;18221;38.704;0.152;2023-08-30T07:33:18;98420.38;;;27.79;34.14
10176;BME280;18221;38.704;0.152;2023-08-30T07:35:46;98413.38;;;27.51;35.04
10176;BME280;18221;38.704;0.152;2023-08-30T07:38:15;98416.41;;;27.54;34.83
10176;BME280;18221;38.704;0.152;2023-08-30T07:40:43;98417.59;;;27.69;34.33
10176;BME280;18221;38.704;0.152;2023-08-30T07:43:11;98413.63;;;27.91;34.21
10176;BME280;18221;38.704;0.152;2023-08-30T07:45:39;98409.63;;;28.09;33.58
10176;BME280;18221;38.704;0.152;2023-08-30T07:48:07;98418.13;;;28.12;33.83
10176;BME280;18221;38.704;0.152;2023-08-30T07:50:35;98417.66;;;28.36;33.68
10176;BME280;18221;38.704;0.152;2023-08-30T07:53:03;98417.13;;;28.44;33.18
10176;BME280;18221;38.704;0.152;2023-08-30T07:55:33;98424.28;;;28.55;33.33
10176;BME280;18221;38.704;0.152;2023-08-30T07:58:02;98427.25;;;28.53;32.98
10176;BME280;18221;38.704;0.152;2023-08-30T08:00:30;98439.56;;;28.56;32.99
10176;BME280;18221;38.704;0.152;2023-08-30T08:02:58;98449.38;;;28.47;32.85
10176;BME280;18221;38.704;0.152;2023-08-30T08:05:26;98450.47;;;28.56;32.97
10176;BME280;18221;38.704;0.152;2023-08-30T08:07:54;98446.19;;;28.65;32.63
10176;BME280;18221;38.704;0.152;2023-08-30T08:10:26;98451.84;;;28.53;33.37
10176;BME280;18221;38.704;0.152;2023-08-30T08:12:56;98459.97;;;28.33;33.80
10176;BME280;18221;38.704;0.152;2023-08-30T08:15:24;98463.56;;;28.39;34.13
10176;BME280;18221;38.704;0.152;2023-08-30T08:17:52;98469.06;;;28.54;33.39
10176;BME280;18221;38.704;0.152;2023-08-30T08:20:20;98477.25;;;28.54;33.63
10176;BME280;18221;38.704;0.152;2023-08-30T08:22:48;98477.25;;;28.54;33.32
10176;BME280;18221;38.704;0.152;2023-08-30T08:25:16;98486.63;;;28.73;33.05
10176;BME280;18221;38.704;0.152;2023-08-30T08:27:44;98486.16;;;28.96;32.96
10176;BME280;18221;38.704;0.152;2023-08-30T08:30:14;98492.41;;;28.97;32.70
10176;BME280;18221;38.704;0.152;2023-08-30T08:32:42;98489.97;;;28.95;32.74
10176;BME280;18221;38.704;0.152;2023-08-30T08:35:10;98497.34;;;29.00;32.74
10176;BME280;18221;38.704;0.152;2023-08-30T08:37:38;98501.41;;;28.87;33.02
10176;BME280;18221;38.704;0.152;2023-08-30T08:40:07;98501.47;;;29.12;32.18
10176;BME280;18221;38.704;0.152;2023-08-30T08:42:36;98496.56;;;29.09;31.75
10176;BME280;18221;38.704;0.152;2023-08-30T08:45:05;98498.19;;;29.15;31.89
10176;BME280;18221;38.704;0.152;2023-08-30T08:47:36;98502.28;;;29.18;31.33
10176;BME280;18221;38.704;0.152;2023-08-30T08:50:06;98503.06;;;28.83;31.61
10176;BME280;18221;38.704;0.152;2023-08-30T08:52:34;98505.00;;;28.98;31.92
10176;BME280;18221;38.704;0.152;2023-08-30T08:55:02;98500.06;;;28.90;31.95
10176;BME280;18221;38.704;0.152;2023-08-30T08:57:30;98494.28;;;28.81;31.64
10176;BME280;18221;38.704;0.152;2023-08-30T08:59:59;98491.03;;;28.89;31.86
10176;BME280;18221;38.704;0.152;2023-08-30T09:02:27;98494.69;;;29.25;31.70
10176;BME280;18221;38.704;0.152;2023-08-30T09:04:58;98490.84;;;29.21;31.01
10176;BME280;18221;38.704;0.152;2023-08-30T09:07:30;98493.25;;;29.07;31.59
10176;BME280;18221;38.704;0.152;2023-08-30T09:09:59;98494.41;;;29.36;31.54
10176;BME280;18221;38.704;0.152;2023-08-30T09:12:31;98499.88;;;29.57;30.83
10176;BME280;18221;38.704;0.152;2023-08-30T09:15:00;98494.41;;;29.42;30.80
10176;BME280;18221;38.704;0.152;2023-08-30T09:17:37;98489.22;;;29.60;31.09
10176;BME280;18221;38.704;0.152;2023-08-30T09:20:12;98487.81;;;29.78;31.18
10176;BME280;18221;38.704;0.152;2023-08-30T09:22:41;98490.84;;;29.86;30.62
10176;BME280;18221;38.704;0.152;2023-08-30T09:25:11;98491.41;;;29.83;30.32
10176;BME280;18221;38.704;0.152;2023-08-30T09:27:39;98503.19;;;29.79;30.54
10176;BME280;18221;38.704;0.152;2023-08-30T09:30:09;98499.56;;;30.14;29.54
10176;BME280;18221;38.704;0.152;2023-08-30T09:32:41;98495.38;;;30.41;29.50
10176;BME280;18221;38.704;0.152;2023-08-30T09:35:11;98503.03;;;30.44;29.53
10176;BME280;18221;38.704;0.152;2023-08-30T09:37:39;98500.25;;;30.54;28.83
10176;BME280;18221;38.704;0.152;2023-08-30T09:40:08;98492.84;;;30.60;28.54
10176;BME280;18221;38.704;0.152;2023-08-30T09:42:41;98497.63;;;30.24;28.75
10176;BME280;18221;38.704;0.152;2023-08-30T09:45:18;98505.22;;;30.32;28.93
10176;BME280;18221;38.704;0.152;2023-08-30T09:47:48;98500.56;;;30.33;29.02
10176;BME280;18221;38.704;0.152;2023-08-30T09:50:19;98501.13;;;30.30;28.81
10176;BME280;18221;38.704;0.152;2023-08-30T09:52:48;98494.28;;;30.42;28.43
10176;BME280;18221;38.704;0.152;2023-08-30T09:55:19;98497.75;;;30.63;28.33
10176;BME280;18221;38.704;0.152;2023-08-30T09:57:51;98492.25;;;30.68;28.39
10176;BME280;18221;38.704;0.152;2023-08-30T10:00:20;98503.91;;;30.89;28.62
10176;BME280;18221;38.704;0.152;2023-08-30T10:02:49;98495.38;;;31.00;28.56
10176;BME280;18221;38.704;0.152;2023-08-30T10:05:20;98495.88;;;30.53;28.82
10176;BME280;18221;38.704;0.152;2023-08-30T10:07:48;98497.47;;;30.65;28.55
10176;BME280;18221;38.704;0.152;2023-08-30T10:10:19;98491.28;;;30.98;28.45
10176;BME280;18221;38.704;0.152;2023-08-30T10:12:48;98492.69;;;30.85;28.60
10176;BME280;18221;38.704;0.152;2023-08-30T10:15:17;98491.47;;;30.58;28.96
10176;BME280;18221;38.704;0.152;2023-08-30T10:17:50;98489.28;;;30.54;28.80
10176;BME280;18221;38.704;0.152;2023-08-30T10:20:23;98489.06;;;30.46;28.59
10176;BME280;18221;38.704;0.152;2023-08-30T10:22:53;98483.13;;;30.83;28.11
10176;BME280;18221;38.704;0.152;2023-08-30T10:25:26;98480.34;;;30.93;28.92
10176;BME280;18221;38.704;0.152;2023-08-30T10:27:56;98492.81;;;31.14;28.95
10176;BME280;18221;38.704;0.152;2023-08-30T10:30:26;98488.91;;;31.25;29.96
10176;BME280;18221;38.704;0.152;2023-08-30T10:32:54;98486.13;;;30.86;31.69
10176;BME280;18221;38.704;0.152;2023-08-30T10:35:25;98481.16;;;30.88;30.50
10176;BME280;18221;38.704;0.152;2023-08-30T10:37:58;98489.22;;;31.18;30.37
10176;BME280;18221;38.704;0.152;2023-08-30T10:40:27;98488.78;;;31.40;29.97
10176;BME280;18221;38.704;0.152;2023-08-30T10:43:02;98481.63;;;31.39;29.79
10176;BME280;18221;38.704;0.152;2023-08-30T10:45:31;98478.38;;;31.37;29.40
10176;BME280;18221;38.704;0.152;2023-08-30T10:48:00;98480.34;;;31.32;30.74
10176;BME280;18221;38.704;0.152;2023-08-30T10:50:33;98474.28;;;31.68;29.98
10176;BME280;18221;38.704;0.152;2023-08-30T10:53:02;98477.69;;;31.84;29.83
10176;BME280;18221;38.704;0.152;2023-08-30T10:55:31;98480.59;;;31.69;30.05
10176;BME280;18221;38.704;0.152;2023-08-30T10:58:01;98480.53;;;31.40;30.90
10176;BME280;18221;38.704;0.152;2023-08-30T11:00:31;98474.75;;;31.42;30.60
10176;BME280;18221;38.704;0.152;2023-08-30T11:03:00;98479.03;;;31.58;30.36
10176;BME280;18221;38.704;0.152;2023-08-30T11:05:31;98478.78;;;31.59;29.61
10176;BME280;18221;38.704;0.152;2023-08-30T11:07:59;98478.63;;;31.46;30.45
10176;BME280;18221;38.704;0.152;2023-08-30T11:10:30;98470.91;;;31.43;30.80
10176;BME280;18221;38.704;0.152;2023-08-30T11:12:58;98474.19;;;31.45;30.79
10176;BME280;18221;38.704;0.152;2023-08-30T11:15:26;98472.72;;;31.24;31.21
10176;BME280;18221;38.704;0.152;2023-08-30T11:18:03;98461.28;;;31.50;30.70
10176;BME280;18221;38.704;0.152;2023-08-30T11:20:32;98464.44;;;31.67;30.55
10176;BME280;18221;38.704;0.152;2023-08-30T11:23:03;98472.41;;;31.93;30.40
10176;BME280;18221;38.704;0.152;2023-08-30T11:25:31;98477.19;;;32.11;30.05
10176;BME280;18221;38.704;0.152;2023-08-30T11:28:03;98475.44;;;32.20;29.81
10176;BME280;18221;38.704;0.152;2023-08-30T11:30:31;98469.94;;;32.20;30.34
10176;BME280;18221;38.704;0.152;2023-08-30T11:32:59;98461.28;;;32.31;30.62
10176;BME280;18221;38.704;0.152;2023-08-30T11:35:28;98458.00;;;32.53;29.94
10176;BME280;18221;38.704;0.152;2023-08-30T11:37:59;98461.50;;;32.77;28.98
10176;BME280;18221;38.704;0.152;2023-08-30T11:40:28;98463.59;;;32.67;28.76
10176;BME280;18221;38.704;0.152;2023-08-30T11:42:57;98456.91;;;32.49;28.81
10176;BME280;18221;38.704;0.152;2023-08-30T11:45:25;98452.19;;;32.55;28.95
10176;BME280;18221;38.704;0.152;2023-08-30T11:47:53;98454.22;;;32.68;29.16
10176;BME280;18221;38.704;0.152;2023-08-30T11:50:21;98449.22;;;32.51;28.29
10176;BME280;18221;38.704;0.152;2023-08-30T11:52:49;98455.31;;;32.48;28.28
10176;BME280;18221;38.704;0.152;2023-08-30T11:55:20;98454.16;;;32.49;28.35
10176;BME280;18221;38.704;0.152;2023-08-30T11:57:50;98439.97;;;32.42;28.51
10176;BME280;18221;38.704;0.152;2023-08-30T12:00:20;98460.22;;;32.51;28.50
10176;BME280;18221;38.704;0.152;2023-08-30T12:02:49;98454.69;;;32.56;28.16
10176;BME280;18221;38.704;0.152;2023-08-30T12:05:17;98445.38;;;32.71;28.27
10176;BME280;18221;38.704;0.152;2023-08-30T12:07:46;98450.97;;;32.84;28.18
10176;BME280;18221;38.704;0.152;2023-08-30T12:10:19;98454.97;;;32.92;27.98
10176;BME280;18221;38.704;0.152;2023-08-30T12:12:47;98461.22;;;32.79;27.78
10176;BME280;18221;38.704;0.152;2023-08-30T12:15:15;98452.63;;;32.67;28.28
10176;BME280;18221;38.704;0.152;2023-08-30T12:17:44;98456.81;;;32.78;28.17
10176;BME280;18221;38.704;0.152;2023-08-30T12:20:16;98462.34;;;32.96;28.12
10176;BME280;18221;38.704;0.152;2023-08-30T12:22:46;98463.03;;;33.07;27.66
10176;BME280;18221;38.704;0.152;2023-08-30T12:25:22;98448.19;;;33.22;27.72
10176;BME280;18221;38.704;0.152;2023-08-30T12:27:50;98449.25;;;33.26;27.19
10176;BME280;18221;38.704;0.152;2023-08-30T12:30:19;98456.66;;;33.44;27.10
10176;BME280;18221;38.704;0.152;2023-08-30T12:32:48;98465.75;;;33.26;26.72
10176;BME280;18221;38.704;0.152;2023-08-30T12:35:16;98463.16;;;33.34;27.22
10176;BME280;18221;38.704;0.152;2023-08-30T12:37:44;98462.81;;;33.54;26.53
10176;BME280;18221;38.704;0.152;2023-08-30T12:40:12;98463.28;;;33.43;26.94
10176;BME280;18221;38.704;0.152;2023-08-30T12:42:44;98472.44;;;33.38;26.79
10176;BME280;18221;38.704;0.152;2023-08-30T12:45:12;98478.59;;;33.49;27.06
10176;BME280;18221;38.704;0.152;2023-08-30T12:47:40;98475.75;;;33.54;27.03
10176;BME280;18221;38.704;0.152;2023-08-30T12:50:09;98466.47;;;33.50;26.83
10176;BME280;18221;38.704;0.152;2023-08-30T12:52:36;98471.00;;;33.60;26.66
10176;BME280;18221;38.704;0.152;2023-08-30T12:55:05;98466.31;;;33.60;26.30
10176;BME280;18221;38.704;0.152;2023-08-30T12:57:33;98469.00;;;33.65;26.48
10176;BME280;18221;38.704;0.152;2023-08-30T13:00:03;98468.19;;;33.78;26.47
10176;BME280;18221;38.704;0.152;2023-08-30T13:02:32;98463.91;;;33.72;25.73
10176;BME280;18221;38.704;0.152;2023-08-30T13:05:00;98458.72;;;33.52;26.34
10176;BME280;18221;38.704;0.152;2023-08-30T13:07:28;98456.53;;;33.35;27.24
10176;BME280;18221;38.704;0.152;2023-08-30T13:09:56;98456.22;;;33.37;26.77
10176;BME280;18221;38.704;0.152;2023-08-30T13:12:24;98465.00;;;33.39;26.58
10176;BME280;18221;38.704;0.152;2023-08-30T13:14:52;98453.84;;;33.30;26.94
10176;BME280;18221;38.704;0.152;2023-08-30T13:17:21;98463.34;;;33.06;27.54
10176;BME280;18221;38.704;0.152;2023-08-30T13:19:49;98459.91;;;32.95;27.67
10176;BME280;18221;38.704;0.152;2023-08-30T13:22:18;98453.34;;;32.91;28.13
10176;BME280;18221;38.704;0.152;2023-08-30T13:24:46;98465.75;;;32.88;27.57